Time;durP1;ratioP1;P1;durP2;ratioP2;P2;SDS_P1;SDS_P2;PMS_P1;PMS_P2;Temp;Humidity;BMP_temperature;BMP_pressure;BME280_temperature;BME280_humidity;BME280_pressure;Samples;Min_cycle;Max_cycle;Signal;HPM_P1;HPM_P2
2022/04/09 00:00:07;;;;;;;8.52;2.00;;;4.90;99.90;;;;;;5073898;28;20398;-64
2022/04/09 00:02:33;;;;;;;11.20;2.22;;;4.80;99.90;;;;;;5073702;28;20128;-63
2022/04/09 00:04:59;;;;;;;8.70;2.22;;;4.80;99.90;;;;;;5074065;28;20067;-64
2022/04/09 00:07:24;;;;;;;9.95;1.75;;;4.80;99.90;;;;;;5073426;28;20044;-63
2022/04/09 00:09:50;;;;;;;9.82;2.42;;;4.80;99.90;;;;;;5074135;28;20115;-63
2022/04/09 00:12:16;;;;;;;10.23;2.60;;;4.70;99.90;;;;;;5074029;28;20047;-64
2022/04/09 00:14:41;;;;;;;8.10;1.70;;;4.70;99.90;;;;;;5074017;28;20412;-63
2022/04/09 00:17:09;;;;;;;8.40;2.08;;;4.70;99.90;;;;;;5073248;28;20697;-63
2022/04/09 00:19:36;;;;;;;9.05;2.28;;;4.70;99.90;;;;;;5077696;28;20481;-64
2022/04/09 00:22:02;;;;;;;8.05;2.10;;;4.60;99.90;;;;;;5077801;28;20423;-63
2022/04/09 00:24:27;;;;;;;11.93;2.58;;;4.60;99.90;;;;;;5077653;28;20065;-63
2022/04/09 00:26:53;;;;;;;12.07;2.80;;;4.60;99.90;;;;;;5077387;28;20045;-63
2022/04/09 00:29:19;;;;;;;12.35;2.35;;;4.70;99.90;;;;;;5060443;28;20354;-63
2022/04/09 00:31:44;;;;;;;11.45;2.30;;;4.70;99.90;;;;;;5077898;28;20464;-63
2022/04/09 00:34:10;;;;;;;9.60;2.40;;;4.70;99.90;;;;;;5077851;28;20089;-64
2022/04/09 00:36:36;;;;;;;10.00;2.30;;;4.70;99.90;;;;;;5059085;28;20135;-63
2022/04/09 00:39:02;;;;;;;7.15;1.85;;;4.70;99.90;;;;;;5059991;28;20047;-63
2022/04/09 00:41:27;;;;;;;7.43;1.70;;;4.80;99.90;;;;;;5077642;28;20033;-63
2022/04/09 00:43:53;;;;;;;7.57;2.03;;;4.70;99.90;;;;;;5059868;28;20366;-63
2022/04/09 00:46:18;;;;;;;6.95;2.08;;;4.80;99.90;;;;;;5058986;28;20373;-64
2022/04/09 00:48:44;;;;;;;8.60;2.05;;;4.80;99.90;;;;;;5077858;28;20037;-63
2022/04/09 00:51:10;;;;;;;8.48;2.13;;;4.80;99.90;;;;;;5059861;28;20543;-64
2022/04/09 00:53:41;;;;;;;8.20;1.88;;;4.80;99.90;;;;;;5077449;28;20433;-63
2022/04/09 00:56:13;;;;;;;9.23;2.58;;;4.70;99.90;;;;;;5076694;28;20103;-63
2022/04/09 00:58:55;;;;;;;9.77;2.13;;;4.60;99.90;;;;;;5077455;28;20094;-63
2022/04/09 01:01:22;;;;;;;7.50;2.35;;;4.60;99.90;;;;;;5077325;28;20036;-63
2022/04/09 01:03:50;;;;;;;5.63;1.63;;;4.60;99.90;;;;;;5077268;28;20036;-64
2022/04/09 01:06:16;;;;;;;8.38;2.03;;;4.60;99.90;;;;;;5076524;28;20093;-63
2022/04/09 01:08:42;;;;;;;7.20;1.55;;;4.60;99.90;;;;;;5077240;28;20400;-63
2022/04/09 01:11:07;;;;;;;6.97;1.75;;;4.60;99.90;;;;;;5059415;28;20430;-63
2022/04/09 01:13:36;;;;;;;8.70;2.05;;;4.60;99.90;;;;;;5076778;28;20111;-63
2022/04/09 01:16:02;;;;;;;8.60;2.08;;;4.60;99.90;;;;;;5076362;28;20043;-63
2022/04/09 01:18:33;;;;;;;7.80;2.20;;;4.60;99.90;;;;;;5076984;28;20058;-63
2022/04/09 01:21:03;;;;;;;9.88;2.22;;;4.60;99.90;;;;;;5076921;28;20036;-63
2022/04/09 01:23:29;;;;;;;8.27;1.80;;;4.60;99.90;;;;;;5076604;28;20075;-63
2022/04/09 01:25:57;;;;;;;9.65;1.85;;;4.70;99.90;;;;;;5075702;28;20457;-62
2022/04/09 01:28:23;;;;;;;9.20;2.00;;;4.80;99.90;;;;;;5076262;28;20119;-63
2022/04/09 01:30:48;;;;;;;8.68;2.13;;;4.70;99.90;;;;;;5059239;28;20124;-63
2022/04/09 01:33:15;;;;;;;8.55;1.92;;;4.70;99.90;;;;;;5076343;28;20048;-64
2022/04/09 01:35:41;;;;;;;9.45;1.73;;;4.70;99.90;;;;;;5075881;28;20040;-63
2022/04/09 01:38:07;;;;;;;10.10;2.03;;;4.60;99.90;;;;;;5076625;28;20106;-62
2022/04/09 01:40:32;;;;;;;7.78;1.90;;;4.60;99.90;;;;;;5076610;28;20053;-63
2022/04/09 01:42:58;;;;;;;9.15;1.80;;;4.50;99.90;;;;;;5076236;28;20048;-63
2022/04/09 01:45:24;;;;;;;8.50;1.77;;;4.50;99.90;;;;;;5076060;28;20051;-63
2022/04/09 01:47:50;;;;;;;9.63;2.00;;;4.50;99.90;;;;;;5075683;28;20113;-63
2022/04/09 01:50:15;;;;;;;8.07;1.70;;;4.50;99.90;;;;;;5076496;28;20097;-63
2022/04/09 01:52:41;;;;;;;10.23;1.90;;;4.50;99.90;;;;;;5076574;28;20050;-63
2022/04/09 01:55:08;;;;;;;8.43;1.63;;;4.50;99.90;;;;;;5075923;28;20441;-63
2022/04/09 01:57:34;;;;;;;9.88;2.40;;;4.40;99.90;;;;;;5076011;28;20055;-63
2022/04/09 02:00:00;;;;;;;7.50;1.80;;;4.40;99.90;;;;;;5076509;28;20059;-63
2022/04/09 02:02:26;;;;;;;7.78;2.00;;;4.40;99.90;;;;;;5075975;28;20120;-63
2022/04/09 02:04:51;;;;;;;8.68;2.20;;;4.40;99.90;;;;;;5075854;28;20049;-63
2022/04/09 02:07:17;;;;;;;8.80;1.75;;;4.30;99.90;;;;;;5075769;28;20040;-63
2022/04/09 02:09:43;;;;;;;10.98;1.80;;;4.40;99.90;;;;;;5076144;28;20517;-63
2022/04/09 02:12:08;;;;;;;7.20;1.85;;;4.40;99.90;;;;;;5075966;28;20496;-62
2022/04/09 02:14:34;;;;;;;6.75;1.85;;;4.40;99.90;;;;;;5075846;28;20052;-62
2022/04/09 02:17:00;;;;;;;10.02;1.95;;;4.40;99.90;;;;;;5075025;28;20048;-62
2022/04/09 02:19:25;;;;;;;8.30;1.83;;;4.40;99.90;;;;;;5075961;28;20087;-62
2022/04/09 02:21:51;;;;;;;10.45;1.95;;;4.40;99.90;;;;;;5075894;28;20215;-62
2022/04/09 02:24:16;;;;;;;12.55;2.00;;;4.40;99.90;;;;;;5075465;28;20386;-63
2022/04/09 02:26:42;;;;;;;11.32;1.92;;;4.40;99.90;;;;;;5074836;28;20048;-62
2022/04/09 02:29:08;;;;;;;9.50;2.15;;;4.40;99.90;;;;;;5058070;28;20044;-63
2022/04/09 02:31:34;;;;;;;8.60;1.88;;;4.40;99.90;;;;;;5075474;28;20477;-63
2022/04/09 02:33:59;;;;;;;10.82;1.75;;;4.40;99.90;;;;;;5057859;28;20033;-62
2022/04/09 02:36:25;;;;;;;10.40;1.95;;;4.40;99.90;;;;;;5074908;28;20469;-62
2022/04/09 02:38:50;;;;;;;8.43;1.90;;;4.40;99.90;;;;;;5075161;28;20464;-62
2022/04/09 02:41:16;;;;;;;11.48;2.10;;;4.40;99.90;;;;;;5056874;28;20048;-62
2022/04/09 02:43:43;;;;;;;7.90;2.03;;;4.40;99.90;;;;;;5075560;28;20338;-62
2022/04/09 02:46:09;;;;;;;6.63;1.65;;;4.30;99.90;;;;;;5074394;28;20040;-62
2022/04/09 02:48:34;;;;;;;7.15;2.05;;;4.30;99.90;;;;;;5075380;28;20051;-62
2022/04/09 02:51:00;;;;;;;6.05;1.65;;;4.30;99.90;;;;;;5075149;28;20064;-62
2022/04/09 02:53:26;;;;;;;7.78;1.63;;;4.30;99.90;;;;;;5075277;28;20032;-62
2022/04/09 02:55:51;;;;;;;6.25;1.85;;;4.30;99.90;;;;;;5074507;28;20449;-63
2022/04/09 02:58:17;;;;;;;9.18;2.00;;;4.30;99.90;;;;;;5075237;28;20127;-63
2022/04/09 03:00:43;;;;;;;11.45;1.52;;;4.20;99.90;;;;;;5075073;28;20130;-62
2022/04/09 03:03:08;;;;;;;8.98;1.60;;;4.20;99.90;;;;;;5074752;28;20368;-63
2022/04/09 03:05:34;;;;;;;6.63;1.83;;;4.30;99.90;;;;;;5074595;28;20045;-63
2022/04/09 03:08:00;;;;;;;9.18;2.03;;;4.30;99.90;;;;;;5074566;28;20035;-62
2022/04/09 03:10:25;;;;;;;5.95;1.65;;;4.40;99.90;;;;;;5074833;28;20457;-62
2022/04/09 03:12:51;;;;;;;9.98;2.40;;;4.50;99.90;;;;;;5074554;28;20111;-63
2022/04/09 03:15:16;;;;;;;9.05;1.73;;;4.40;99.90;;;;;;5074478;28;20040;-62
2022/04/09 03:17:42;;;;;;;10.50;1.95;;;4.50;99.90;;;;;;5074240;28;20049;-62
2022/04/09 03:20:09;;;;;;;8.77;1.88;;;4.40;99.90;;;;;;5074734;28;20090;-62
2022/04/09 03:22:35;;;;;;;10.13;1.90;;;4.40;99.90;;;;;;5074408;28;20063;-62
2022/04/09 03:25:02;;;;;;;8.32;1.98;;;4.30;99.90;;;;;;5074315;28;20048;-62
2022/04/09 03:27:28;;;;;;;11.00;1.88;;;4.30;99.90;;;;;;5056294;28;20040;-62
2022/04/09 03:29:54;;;;;;;10.75;2.40;;;4.20;99.90;;;;;;5074602;28;20047;-62
2022/04/09 03:32:22;;;;;;;9.85;2.10;;;4.20;99.90;;;;;;5074425;28;20132;-62
2022/04/09 03:34:48;;;;;;;12.02;2.25;;;4.10;99.90;;;;;;5074091;28;20036;-62
2022/04/09 03:37:14;;;;;;;10.63;1.98;;;4.10;99.90;;;;;;5074146;28;20090;-62
2022/04/09 03:39:41;;;;;;;8.20;1.83;;;4.10;99.90;;;;;;5074388;28;20455;-62
2022/04/09 03:42:08;;;;;;;14.07;2.47;;;4.20;99.90;;;;;;5074346;28;20090;-62
2022/04/09 03:44:34;;;;;;;7.45;1.90;;;4.20;99.90;;;;;;5074250;28;20037;-62
2022/04/09 03:47:00;;;;;;;9.65;2.10;;;4.30;99.90;;;;;;5073177;28;20420;-62
2022/04/09 03:49:28;;;;;;;8.80;1.98;;;4.30;99.90;;;;;;5074228;28;20036;-63
2022/04/09 03:51:54;;;;;;;8.25;1.73;;;4.40;99.90;;;;;;5074069;28;20036;-62
2022/04/09 03:54:19;;;;;;;10.25;2.15;;;4.40;99.90;;;;;;5074007;28;20411;-62
2022/04/09 03:56:45;;;;;;;10.68;2.08;;;4.40;99.90;;;;;;5073523;28;20101;-62
2022/04/09 03:59:11;;;;;;;7.13;1.80;;;4.50;99.90;;;;;;5074190;28;20044;-62
2022/04/09 04:01:37;;;;;;;10.70;2.10;;;4.50;99.90;;;;;;5074039;28;20060;-62
2022/04/09 04:04:03;;;;;;;9.45;1.83;;;4.50;99.90;;;;;;5074010;28;20426;-62
2022/04/09 04:06:29;;;;;;;7.78;1.85;;;4.50;99.90;;;;;;5073399;28;20036;-63
2022/04/09 04:08:58;;;;;;;9.00;1.90;;;4.50;99.90;;;;;;5073749;28;20619;-63
2022/04/09 04:11:24;;;;;;;10.20;1.80;;;4.50;99.90;;;;;;5073912;28;20451;-63
2022/04/09 04:13:50;;;;;;;6.70;1.83;;;4.40;99.90;;;;;;5074091;28;20068;-62
2022/04/09 04:16:16;;;;;;;5.90;1.98;;;4.40;99.90;;;;;;5072894;28;20037;-63
2022/04/09 04:18:42;;;;;;;7.68;1.60;;;4.40;99.90;;;;;;5073589;28;20343;-62
2022/04/09 04:21:08;;;;;;;6.55;1.65;;;4.40;99.90;;;;;;5073870;28;20039;-63
2022/04/09 04:23:34;;;;;;;5.85;1.60;;;4.40;99.90;;;;;;5055856;28;20064;-63
2022/04/09 04:26:00;;;;;;;7.80;1.60;;;4.40;99.90;;;;;;5072914;28;20472;-62
2022/04/09 04:28:26;;;;;;;7.40;1.58;;;4.40;99.90;;;;;;5055579;28;20052;-62
2022/04/09 04:30:51;;;;;;;8.82;2.17;;;4.40;99.90;;;;;;5056179;28;20119;-63
2022/04/09 04:33:17;;;;;;;6.00;1.55;;;4.50;99.90;;;;;;5073550;28;20536;-64
2022/04/09 04:35:42;;;;;;;9.65;2.08;;;4.50;99.90;;;;;;5073225;28;20135;-63
2022/04/09 04:38:08;;;;;;;12.43;2.75;;;4.60;99.90;;;;;;5073336;28;20076;-63
2022/04/09 04:40:34;;;;;;;10.10;2.40;;;4.60;99.90;;;;;;5073598;28;20111;-63
2022/04/09 04:43:00;;;;;;;8.57;1.70;;;4.60;99.90;;;;;;5073621;28;20461;-63
2022/04/09 04:45:25;;;;;;;11.68;2.08;;;4.60;99.90;;;;;;5073179;28;20048;-63
2022/04/09 04:47:51;;;;;;;11.65;2.03;;;4.50;99.90;;;;;;5072770;28;20044;-63
2022/04/09 04:50:18;;;;;;;10.68;1.95;;;4.50;99.90;;;;;;5073298;28;20076;-64
2022/04/09 04:52:44;;;;;;;8.23;1.90;;;4.50;99.90;;;;;;5073522;28;20032;-62
2022/04/09 04:55:10;;;;;;;10.68;2.25;;;4.60;99.90;;;;;;5072967;28;20037;-62
2022/04/09 04:57:55;;;;;;;8.48;1.98;;;4.60;99.90;;;;;;5055603;28;20095;-61
2022/04/09 05:00:25;;;;;;;10.88;2.33;;;4.70;99.90;;;;;;5073657;28;20464;-61
2022/04/09 05:02:51;;;;;;;7.88;1.95;;;4.60;99.90;;;;;;5073426;28;20172;-61
2022/04/09 05:05:18;;;;;;;11.75;2.33;;;4.60;99.90;;;;;;5076342;28;20044;-62
2022/04/09 05:07:47;;;;;;;9.63;1.83;;;4.50;99.90;;;;;;5076874;28;20072;-61
2022/04/09 05:10:14;;;;;;;10.60;2.05;;;4.50;99.90;;;;;;5077175;28;20059;-61
2022/04/09 05:12:41;;;;;;;9.20;2.42;;;4.50;99.90;;;;;;5056693;28;20041;-62
2022/04/09 05:15:09;;;;;;;7.07;1.90;;;4.50;99.90;;;;;;5073674;28;20047;-61
2022/04/09 05:17:35;;;;;;;8.20;2.10;;;4.50;99.90;;;;;;5063464;28;20044;-61
2022/04/09 05:20:02;;;;;;;7.78;1.90;;;4.50;99.90;;;;;;5063093;28;20047;-61
2022/04/09 05:22:28;;;;;;;6.95;1.92;;;4.50;99.90;;;;;;5067230;28;20087;-62
2022/04/09 05:24:55;;;;;;;10.40;2.58;;;4.50;99.90;;;;;;5074938;28;20381;-62
2022/04/09 05:27:21;;;;;;;9.65;2.30;;;4.50;99.90;;;;;;5075056;28;20040;-61
2022/04/09 05:29:47;;;;;;;12.32;2.30;;;4.50;99.90;;;;;;5076434;28;20033;-61
2022/04/09 05:32:13;;;;;;;12.48;2.30;;;4.40;99.90;;;;;;5075101;28;20040;-61
2022/04/09 05:34:38;;;;;;;8.15;2.00;;;4.40;99.90;;;;;;5075841;28;20032;-62
2022/04/09 05:37:04;;;;;;;12.88;2.47;;;4.40;99.90;;;;;;5057190;28;20036;-61
2022/04/09 05:39:30;;;;;;;15.20;2.38;;;4.40;99.90;;;;;;5076220;28;20068;-61
2022/04/09 05:41:55;;;;;;;7.55;2.15;;;4.60;99.90;;;;;;5043754;28;20048;-61
2022/04/09 05:44:21;;;;;;;9.40;2.33;;;4.80;99.90;;;;;;5056197;28;20510;-61
2022/04/09 05:46:47;;;;;;;9.02;2.40;;;5.00;99.90;;;;;;5063450;28;20045;-61
2022/04/09 05:49:12;;;;;;;10.73;2.22;;;5.20;99.90;;;;;;5075879;28;21138;-61
2022/04/09 05:51:38;;;;;;;10.90;2.08;;;5.20;99.90;;;;;;5075727;28;20028;-63
2022/04/09 05:54:05;;;;;;;14.10;2.30;;;5.20;99.90;;;;;;5075795;28;20400;-61
2022/04/09 05:56:31;;;;;;;11.98;2.40;;;5.40;99.90;;;;;;5075113;28;20110;-62
2022/04/09 05:58:57;;;;;;;10.88;2.38;;;5.80;99.90;;;;;;5057896;28;20036;-62
2022/04/09 06:01:22;;;;;;;11.93;2.47;;;6.40;99.90;;;;;;5075674;28;20036;-62
2022/04/09 06:03:48;;;;;;;13.68;2.90;;;7.00;99.90;;;;;;5058212;28;20051;-62
2022/04/09 06:06:13;;;;;;;5.80;1.90;;;7.40;99.90;;;;;;5074823;28;20036;-62
2022/04/09 06:08:39;;;;;;;9.07;2.58;;;7.30;99.90;;;;;;5075691;28;20651;-63
2022/04/09 06:11:05;;;;;;;9.60;2.10;;;7.30;99.90;;;;;;5075474;28;20044;-62
2022/04/09 06:13:34;;;;;;;10.52;1.73;;;7.00;99.90;;;;;;5075781;28;20047;-62
2022/04/09 06:16:00;;;;;;;10.63;2.50;;;6.50;99.90;;;;;;5073197;28;20383;-62
2022/04/09 06:18:26;;;;;;;9.38;2.00;;;6.20;99.90;;;;;;5075308;28;20098;-62
2022/04/09 06:20:52;;;;;;;11.82;2.72;;;5.90;99.90;;;;;;5075549;28;20045;-62
2022/04/09 06:23:17;;;;;;;8.82;2.33;;;6.00;99.90;;;;;;5075472;28;20491;-61
2022/04/09 06:25:43;;;;;;;9.20;2.55;;;6.50;99.90;;;;;;5074887;28;20125;-62
2022/04/09 06:28:09;;;;;;;6.15;1.70;;;7.00;99.90;;;;;;5074611;28;20097;-61
2022/04/09 06:30:35;;;;;;;8.32;2.00;;;7.30;99.90;;;;;;5074914;28;20469;-61
2022/04/09 06:33:00;;;;;;;6.47;1.90;;;7.50;99.90;;;;;;5075205;28;20071;-62
2022/04/09 06:35:27;;;;;;;5.88;1.50;;;7.90;99.90;;;;;;5068841;28;20059;-62
2022/04/09 06:37:52;;;;;;;8.82;2.20;;;7.90;99.90;;;;;;5072989;28;20141;-61
2022/04/09 06:40:18;;;;;;;6.10;1.58;;;8.00;99.90;;;;;;5059965;28;20474;-61
2022/04/09 06:42:43;;;;;;;7.85;1.38;;;8.00;99.90;;;;;;5055430;28;20084;-62
2022/04/09 06:45:10;;;;;;;7.53;1.75;;;8.00;99.90;;;;;;5054862;28;20289;-62
2022/04/09 06:47:39;;;;;;;9.52;1.60;;;8.10;99.90;;;;;;5058655;28;20052;-61
2022/04/09 06:50:09;;;;;;;5.03;1.17;;;8.00;99.90;;;;;;5054894;28;20378;-62
2022/04/09 06:52:36;;;;;;;6.47;1.75;;;8.20;99.90;;;;;;5072311;28;20036;-63
2022/04/09 06:55:02;;;;;;;6.60;1.33;;;8.00;99.90;;;;;;5064124;28;20404;-63
2022/04/09 06:57:28;;;;;;;5.15;1.70;;;8.00;99.90;;;;;;5068009;28;20047;-63
2022/04/09 06:59:59;;;;;;;8.80;1.65;;;8.10;99.90;;;;;;5064602;28;20049;-63
2022/04/09 07:02:26;;;;;;;11.13;1.50;;;8.30;99.90;;;;;;5054963;28;20127;-63
2022/04/09 07:04:53;;;;;;;5.88;1.65;;;8.50;99.90;;;;;;5060208;28;20051;-65
2022/04/09 07:07:23;;;;;;;10.98;2.38;;;8.60;99.90;;;;;;5063302;28;20072;-63
2022/04/09 07:09:50;;;;;;;9.65;2.10;;;8.30;99.90;;;;;;5069152;28;20135;-63
2022/04/09 07:12:16;;;;;;;8.63;1.98;;;7.80;99.90;;;;;;5054110;28;20436;-64
2022/04/09 07:14:43;;;;;;;6.80;1.88;;;7.00;99.90;;;;;;5053851;28;20032;-63
2022/04/09 07:17:09;;;;;;;11.60;1.90;;;6.80;99.90;;;;;;5054073;28;20488;-63
2022/04/09 07:19:35;;;;;;;7.75;1.65;;;6.70;99.90;;;;;;5074107;28;20068;-64
2022/04/09 07:22:00;;;;;;;8.80;1.85;;;6.60;99.90;;;;;;5074161;28;20032;-63
2022/04/09 07:24:26;;;;;;;10.18;1.70;;;6.50;99.90;;;;;;5055980;28;20118;-63
2022/04/09 07:26:52;;;;;;;6.55;1.30;;;6.60;99.90;;;;;;5068389;28;20045;-63
2022/04/09 07:29:18;;;;;;;8.70;1.85;;;6.80;99.90;;;;;;5054343;28;20094;-63
2022/04/09 07:31:45;;;;;;;9.27;1.95;;;7.00;99.90;;;;;;5053789;28;20041;-63
2022/04/09 07:34:11;;;;;;;3.88;1.15;;;7.10;99.90;;;;;;5053854;28;20450;-64
2022/04/09 07:36:38;;;;;;;10.80;1.70;;;7.10;99.90;;;;;;5061263;28;20090;-63
2022/04/09 07:39:05;;;;;;;5.72;1.65;;;7.10;99.90;;;;;;5059475;28;20044;-63
2022/04/09 07:41:31;;;;;;;7.47;1.75;;;7.20;99.90;;;;;;5071692;28;20116;-63
2022/04/09 07:43:57;;;;;;;8.95;2.10;;;7.20;99.90;;;;;;5071806;28;20178;-63
2022/04/09 07:46:22;;;;;;;10.45;1.83;;;7.20;99.90;;;;;;5057020;28;20096;-64
2022/04/09 07:48:48;;;;;;;11.35;2.35;;;7.30;99.90;;;;;;5074565;28;20043;-64
2022/04/09 07:51:15;;;;;;;9.73;2.50;;;7.60;99.90;;;;;;5074214;28;20029;-64
2022/04/09 07:53:40;;;;;;;12.40;2.90;;;7.60;99.90;;;;;;5073729;28;20155;-64
2022/04/09 07:56:06;;;;;;;12.23;2.58;;;7.60;99.90;;;;;;5073427;28;20056;-63
2022/04/09 07:58:32;;;;;;;10.70;2.55;;;7.60;99.90;;;;;;5073838;28;20369;-63
2022/04/09 08:00:57;;;;;;;11.70;2.80;;;7.60;99.90;;;;;;5073721;28;20040;-63
2022/04/09 08:03:23;;;;;;;12.75;2.63;;;7.60;99.90;;;;;;5068563;28;20037;-63
2022/04/09 08:05:48;;;;;;;7.63;2.22;;;7.70;99.90;;;;;;5053809;28;20047;-63
2022/04/09 08:08:14;;;;;;;8.02;2.53;;;7.70;99.90;;;;;;5072588;28;20425;-65
2022/04/09 08:10:40;;;;;;;9.60;2.33;;;7.70;99.90;;;;;;5073551;28;20143;-64
2022/04/09 08:13:06;;;;;;;9.20;2.33;;;7.70;99.90;;;;;;5073761;28;20059;-63
2022/04/09 08:15:31;;;;;;;9.38;2.05;;;7.70;99.90;;;;;;5073266;28;20036;-63
2022/04/09 08:17:58;;;;;;;10.73;2.28;;;7.70;99.90;;;;;;5073531;28;20041;-64
2022/04/09 08:20:24;;;;;;;9.25;2.15;;;7.80;99.90;;;;;;5073827;28;20071;-64
2022/04/09 08:22:50;;;;;;;11.75;2.40;;;7.90;99.90;;;;;;5055810;28;20079;-65
2022/04/09 08:25:17;;;;;;;7.65;1.90;;;7.90;99.90;;;;;;5073779;28;20056;-64
2022/04/09 08:27:43;;;;;;;7.50;1.67;;;7.90;99.90;;;;;;5073491;28;20041;-63
2022/04/09 08:30:10;;;;;;;13.32;2.03;;;7.80;99.90;;;;;;5073606;28;20033;-63
2022/04/09 08:32:36;;;;;;;10.52;1.83;;;7.70;99.90;;;;;;5073562;28;20068;-64
2022/04/09 08:35:02;;;;;;;8.88;1.88;;;7.60;99.90;;;;;;5073334;28;20037;-64
2022/04/09 08:37:28;;;;;;;6.70;1.75;;;7.50;99.90;;;;;;5073079;28;20044;-64
2022/04/09 08:39:55;;;;;;;10.73;2.30;;;7.60;99.90;;;;;;5076273;28;20036;-63
2022/04/09 08:42:21;;;;;;;9.48;2.15;;;7.70;99.90;;;;;;5077938;28;20040;-63
2022/04/09 08:44:48;;;;;;;9.60;2.08;;;7.70;99.90;;;;;;5059472;28;20048;-64
2022/04/09 08:47:15;;;;;;;7.63;1.63;;;7.40;99.90;;;;;;5058991;28;20354;-64
2022/04/09 08:49:45;;;;;;;7.20;2.08;;;7.20;99.90;;;;;;5075218;28;20375;-63
2022/04/09 08:52:11;;;;;;;8.18;1.80;;;7.00;99.90;;;;;;5039295;28;20045;-64
2022/04/09 08:54:38;;;;;;;7.05;1.73;;;6.90;99.90;;;;;;5056549;28;20044;-63
2022/04/09 08:57:04;;;;;;;8.38;1.70;;;6.90;99.90;;;;;;5065996;28;20040;-64
2022/04/09 08:59:30;;;;;;;6.15;1.65;;;6.80;99.90;;;;;;5074458;28;20077;-63
2022/04/09 09:01:56;;;;;;;8.90;2.10;;;6.90;99.90;;;;;;5056561;28;20075;-63
2022/04/09 09:04:22;;;;;;;8.55;2.20;;;7.10;99.90;;;;;;5056581;28;20033;-63
2022/04/09 09:06:47;;;;;;;12.52;2.60;;;7.20;99.90;;;;;;5058602;28;20068;-63
2022/04/09 09:09:29;;;;;;;11.77;2.60;;;7.50;99.90;;;;;;5056505;28;20477;-63
2022/04/09 09:11:55;;;;;;;14.27;3.70;;;7.60;99.90;;;;;;5056819;28;20511;-64
2022/04/09 09:14:28;;;;;;;18.05;5.38;;;7.80;99.90;;;;;;5056175;28;20422;-64
2022/04/09 09:16:55;;;;;;;18.15;6.72;;;8.00;99.90;;;;;;5058840;28;20063;-63
2022/04/09 09:19:21;;;;;;;15.05;5.65;;;8.10;99.90;;;;;;5056221;28;20362;-63
2022/04/09 09:21:54;;;;;;;12.43;4.75;;;8.20;99.90;;;;;;5056498;28;20085;-64
2022/04/09 09:24:20;;;;;;;9.15;2.22;;;8.20;99.90;;;;;;5055659;28;20110;-63
2022/04/09 09:26:56;;;;;;;6.20;1.63;;;8.40;99.90;;;;;;5058586;28;20053;-64
2022/04/09 09:29:27;;;;;;;8.43;1.83;;;8.50;99.90;;;;;;5056331;28;20043;-63
2022/04/09 09:31:54;;;;;;;9.50;2.03;;;8.20;99.90;;;;;;5056085;28;20077;-63
2022/04/09 09:34:21;;;;;;;7.43;1.58;;;7.60;99.90;;;;;;5055642;28;20040;-63
2022/04/09 09:36:47;;;;;;;10.05;1.90;;;7.50;99.90;;;;;;5058283;28;20500;-64
2022/04/09 09:39:42;;;;;;;9.80;2.45;;;7.40;99.90;;;;;;5061833;28;20477;-63
2022/04/09 09:42:07;;;;;;;7.67;1.83;;;7.40;99.90;;;;;;5065711;28;20132;-63
2022/04/09 09:44:43;;;;;;;7.68;1.92;;;7.60;99.90;;;;;;5054058;28;20399;-64
2022/04/09 09:47:12;;;;;;;11.20;1.95;;;7.70;99.90;;;;;;5063060;28;20473;-64
2022/04/09 09:49:58;;;;;;;13.98;2.47;;;7.90;99.90;;;;;;5074176;28;20039;-64
2022/04/09 09:52:35;;;;;;;9.95;2.17;;;8.20;99.90;;;;;;5074790;28;20040;-64
2022/04/09 09:55:10;;;;;;;9.50;1.77;;;8.40;99.90;;;;;;5053941;28;20028;-64
2022/04/09 09:57:38;;;;;;;7.25;1.52;;;8.40;99.90;;;;;;5073948;28;20063;-64
2022/04/09 10:00:10;;;;;;;5.25;1.60;;;8.30;99.90;;;;;;5074534;28;20040;-64
2022/04/09 10:02:38;;;;;;;6.50;1.40;;;8.30;99.90;;;;;;5074095;28;20454;-64
2022/04/09 10:05:04;;;;;;;5.80;1.38;;;8.20;99.90;;;;;;5074872;28;20070;-64
2022/04/09 10:07:30;;;;;;;8.65;1.70;;;8.30;99.90;;;;;;5075731;28;20143;-65
2022/04/09 10:09:56;;;;;;;7.72;2.35;;;8.40;99.90;;;;;;5075941;28;20373;-65
2022/04/09 10:12:24;;;;;;;7.00;1.70;;;8.40;99.90;;;;;;5065948;28;20068;-64
2022/04/09 10:14:57;;;;;;;5.90;1.85;;;8.50;99.90;;;;;;5056592;28;20048;-65
2022/04/09 10:17:24;;;;;;;4.77;1.60;;;8.50;99.90;;;;;;5075298;28;20051;-63
2022/04/09 10:19:58;;;;;;;8.80;1.70;;;8.40;99.90;;;;;;5056866;28;20731;-64
2022/04/09 10:22:26;;;;;;;6.37;1.57;;;8.20;99.90;;;;;;5057965;28;20080;-64
2022/04/09 10:24:53;;;;;;;7.45;1.60;;;8.00;99.90;;;;;;5074840;28;20302;-64
2022/04/09 10:28:01;;;;;;;6.20;1.45;;;7.50;99.90;;;;;;5075634;28;20044;-64
2022/04/09 10:30:28;;;;;;;4.20;1.23;;;7.40;99.90;;;;;;5013835;28;20048;-64
2022/04/09 10:32:57;;;;;;;7.78;1.70;;;7.30;99.90;;;;;;5066147;28;20362;-64
2022/04/09 10:35:38;;;;;;;3.92;1.30;;;7.20;99.90;;;;;;5075152;28;20040;-64
2022/04/09 10:38:07;;;;;;;9.55;1.65;;;7.30;99.90;;;;;;5074831;28;20076;-64
2022/04/09 10:40:36;;;;;;;8.30;1.92;;;7.50;99.90;;;;;;5074783;28;20055;-64
2022/04/09 10:43:04;;;;;;;7.05;2.08;;;7.70;99.90;;;;;;5075360;28;20090;-64
2022/04/09 10:45:31;;;;;;;9.38;2.90;;;8.00;99.90;;;;;;5075000;28;20418;-63
2022/04/09 10:48:08;;;;;;;7.47;2.17;;;8.20;99.90;;;;;;5074420;28;20040;-64
2022/04/09 10:50:54;;;;;;;8.15;1.92;;;8.40;99.90;;;;;;5075247;28;20417;-64
2022/04/09 10:53:25;;;;;;;11.45;2.00;;;8.60;99.90;;;;;;5075116;28;20042;-65
2022/04/09 10:56:20;;;;;;;12.15;1.85;;;8.80;99.90;;;;;;5074470;28;20101;-64
2022/04/09 10:59:04;;;;;;;;;;;8.80;99.90;;;;;;5055494;28;20052;-65
2022/04/09 11:01:50;;;;;;;9.02;1.65;;;8.80;99.90;;;;;;5054089;28;19927;-64
2022/04/09 11:07:19;;;;;;;4.65;1.50;;;8.40;99.90;;;;;;5061501;28;20048;-64
2022/04/09 11:09:59;;;;;;;9.20;2.10;;;8.30;99.90;;;;;;5074651;28;20032;-65
2022/04/09 11:12:27;;;;;;;7.63;1.90;;;8.40;99.90;;;;;;5074874;28;20070;-64
2022/04/09 11:14:57;;;;;;;10.70;2.53;;;8.30;99.90;;;;;;5074500;28;20048;-63
2022/04/09 11:17:24;;;;;;;8.27;2.03;;;8.10;99.90;;;;;;5074169;28;20400;-64
2022/04/09 11:19:50;;;;;;;4.38;1.77;;;7.90;99.90;;;;;;5074803;28;20056;-64
2022/04/09 11:22:16;;;;;;;7.07;1.70;;;7.80;99.90;;;;;;5074755;28;20361;-65
2022/04/09 11:24:43;;;;;;;7.35;1.63;;;7.70;99.90;;;;;;5065409;28;20055;-64
2022/04/09 11:27:10;;;;;;;7.88;2.10;;;7.60;99.90;;;;;;5073268;28;20036;-63
2022/04/09 11:29:37;;;;;;;8.27;1.92;;;7.60;99.90;;;;;;5073471;28;20106;-63
2022/04/09 11:32:03;;;;;;;4.93;1.50;;;7.70;99.90;;;;;;5074094;28;20145;-64
2022/04/09 11:35:08;;;;;;;6.20;1.50;;;8.10;99.90;;;;;;5073720;28;20476;-63
2022/04/09 11:37:39;;;;;;;4.07;1.33;;;8.00;99.90;;;;;;5049272;28;20450;-64
2022/04/09 11:40:07;;;;;;;4.35;1.50;;;7.90;99.90;;;;;;5054331;28;20119;-64
2022/04/09 11:42:49;;;;;;;6.85;2.35;;;8.10;99.90;;;;;;5068792;28;20036;-63
2022/04/09 11:45:23;;;;;;;6.15;2.22;;;8.40;99.90;;;;;;5054384;28;20048;-63
2022/04/09 11:47:52;;;;;;;10.00;1.95;;;8.20;99.90;;;;;;5040041;28;20069;-63
2022/04/09 11:50:18;;;;;;;8.95;2.97;;;7.00;99.90;;;;;;5073486;28;20096;-62
2022/04/09 11:52:44;;;;;;;9.27;2.95;;;6.70;99.90;;;;;;5072981;28;20056;-64
2022/04/09 11:55:11;;;;;;;9.65;2.70;;;6.50;99.90;;;;;;5072933;28;20047;-63
2022/04/09 11:57:38;;;;;;;8.63;1.90;;;6.20;99.90;;;;;;5071788;28;20044;-62
2022/04/09 12:00:06;;;;;;;8.20;1.95;;;6.00;99.90;;;;;;5054674;28;20082;-62
2022/04/09 12:02:33;;;;;;;6.03;1.63;;;6.00;99.90;;;;;;5071977;28;20457;-62
2022/04/09 12:04:59;;;;;;;5.10;1.27;;;6.00;99.90;;;;;;5071812;28;20428;-62
2022/04/09 12:07:28;;;;;;;4.65;1.00;;;6.00;99.90;;;;;;5037204;28;20064;-62
2022/04/09 12:09:54;;;;;;;7.82;1.92;;;6.10;99.90;;;;;;5073973;28;20040;-62
2022/04/09 12:12:20;;;;;;;10.82;2.30;;;6.20;99.90;;;;;;5074176;28;20093;-62
2022/04/09 12:14:55;;;;;;;8.20;2.03;;;6.40;99.90;;;;;;5061552;28;20365;-60
2022/04/09 12:17:24;;;;;;;5.90;1.75;;;6.70;99.90;;;;;;5066041;28;20048;-63
2022/04/09 12:19:50;;;;;;;7.03;2.00;;;7.00;99.90;;;;;;5071082;28;20464;-63
2022/04/09 12:22:23;;;;;;;3.65;1.23;;;7.20;99.90;;;;;;5073369;28;20044;-63
2022/04/09 12:24:58;;;;;;;7.60;1.90;;;6.90;99.90;;;;;;5073072;28;20094;-62
2022/04/09 12:27:44;;;;;;;7.55;2.10;;;6.50;99.90;;;;;;5063447;28;20047;-62
2022/04/09 12:30:12;;;;;;;6.43;1.70;;;6.20;99.90;;;;;;5055970;28;20063;-62
2022/04/09 12:32:39;;;;;;;5.85;1.70;;;5.90;99.90;;;;;;5069016;28;20033;-62
2022/04/09 12:35:10;;;;;;;8.77;3.22;;;5.90;99.90;;;;;;5053039;28;20044;-63
2022/04/09 12:37:47;;;;;;;11.55;3.58;;;6.00;99.90;;;;;;5059606;28;20055;-63
2022/04/09 12:40:17;;;;;;;8.25;2.20;;;6.00;99.90;;;;;;5065239;28;20040;-63
2022/04/09 12:42:43;;;;;;;8.13;2.33;;;6.10;99.90;;;;;;5072959;28;20488;-64
2022/04/09 12:45:29;;;;;;;5.15;1.73;;;6.30;99.90;;;;;;5073129;28;20072;-63
2022/04/09 12:47:58;;;;;;;9.90;1.77;;;6.30;99.90;;;;;;5069160;28;20496;-63
2022/04/09 12:50:34;;;;;;;6.93;1.50;;;6.50;99.90;;;;;;5036369;28;20041;-63
2022/04/09 12:53:05;;;;;;;8.70;2.00;;;6.70;99.90;;;;;;5053239;28;20108;-63
2022/04/09 12:55:32;;;;;;;8.73;2.05;;;6.80;99.90;;;;;;5052962;28;20044;-63
2022/04/09 12:58:00;;;;;;;10.15;2.45;;;7.10;99.90;;;;;;5067872;28;20103;-63
2022/04/09 13:00:31;;;;;;;11.27;3.17;;;7.30;99.90;;;;;;5073351;28;20047;-63